createdAt,value
2022-07-26T00:02:04.643Z,44.03
2022-07-26T00:04:32.532Z,44.00
2022-07-26T00:07:00.443Z,43.90
2022-07-26T00:09:28.321Z,43.93
2022-07-26T00:11:56.141Z,43.79
2022-07-26T00:14:24.255Z,43.78
2022-07-26T00:16:52.219Z,44.00
2022-07-26T00:19:20.072Z,44.00
2022-07-26T00:21:48.715Z,44.01
2022-07-26T00:24:19.266Z,44.28
2022-07-26T00:26:47.284Z,44.71
2022-07-26T00:29:15.158Z,44.80
2022-07-26T00:31:43.015Z,44.87
2022-07-26T00:34:10.802Z,45.20
2022-07-26T00:36:39.204Z,45.37
2022-07-26T00:39:10.090Z,45.79
2022-07-26T00:41:38.281Z,51.86
2022-07-26T00:44:06.254Z,52.11
2022-07-26T00:46:34.165Z,54.24
2022-07-26T00:49:02.086Z,54.38
2022-07-26T00:51:30.038Z,53.18
2022-07-26T00:53:57.847Z,54.14
2022-07-26T00:56:27.649Z,54.72
2022-07-26T00:58:55.440Z,54.91
2022-07-26T01:01:23.280Z,55.42
2022-07-26T01:03:54.687Z,56.50
2022-07-26T01:06:27.289Z,57.61
2022-07-26T01:08:56.031Z,56.59
2022-07-26T01:11:23.847Z,57.24
2022-07-26T01:13:51.930Z,57.28
2022-07-26T01:16:20.074Z,57.24
2022-07-26T01:18:47.936Z,57.79
2022-07-26T01:21:16.201Z,58.86
2022-07-26T01:23:44.452Z,59.21
2022-07-26T01:26:12.619Z,58.93
2022-07-26T01:28:42.503Z,59.75
2022-07-26T01:31:10.495Z,58.96
2022-07-26T01:33:38.373Z,59.74
2022-07-26T01:36:06.644Z,59.29
2022-07-26T01:38:34.940Z,59.63
2022-07-26T01:41:02.771Z,59.70
2022-07-26T01:43:30.634Z,59.72
2022-07-26T01:45:59.026Z,59.96
2022-07-26T01:48:27.270Z,60.25
2022-07-26T01:50:55.128Z,60.53
2022-07-26T01:53:23.064Z,60.48
2022-07-26T01:55:50.986Z,60.54
2022-07-26T01:58:18.830Z,60.61
2022-07-26T02:00:46.701Z,60.82
2022-07-26T02:03:14.748Z,60.68
2022-07-26T02:05:42.605Z,60.66
2022-07-26T02:08:11.533Z,61.01
2022-07-26T02:10:58.046Z,60.63
2022-07-26T02:13:44.513Z,60.38
2022-07-26T02:16:15.274Z,59.85
2022-07-26T02:18:43.194Z,59.88
2022-07-26T02:21:11.128Z,59.60
2022-07-26T02:23:41.978Z,59.68
2022-07-26T02:26:10.027Z,59.78
2022-07-26T02:28:37.881Z,59.46
2022-07-26T02:31:05.718Z,59.51
2022-07-26T02:33:33.582Z,59.39
2022-07-26T02:36:01.386Z,59.33
2022-07-26T02:38:29.165Z,59.05
2022-07-26T02:40:56.980Z,59.57
2022-07-26T02:43:24.969Z,58.95
2022-07-26T02:46:01.563Z,59.42
2022-07-26T02:48:31.729Z,59.03
2022-07-26T02:50:59.969Z,58.94
2022-07-26T02:53:28.325Z,59.12
2022-07-26T02:55:56.225Z,58.98
2022-07-26T02:58:25.226Z,59.26
2022-07-26T03:00:53.304Z,59.37
2022-07-26T03:03:21.129Z,59.41
2022-07-26T03:05:49.191Z,59.25
2022-07-26T03:08:17.125Z,59.07
2022-07-26T03:10:45.265Z,59.34
2022-07-26T03:13:13.147Z,58.91
2022-07-26T03:15:41.515Z,59.08
2022-07-26T03:18:09.289Z,59.11
2022-07-26T03:20:37.105Z,59.10
2022-07-26T03:23:04.853Z,58.99
2022-07-26T03:25:32.728Z,58.90
2022-07-26T03:28:05.687Z,58.93
2022-07-26T03:30:33.717Z,59.36
2022-07-26T03:33:01.698Z,59.68
2022-07-26T03:35:29.569Z,59.31
2022-07-26T03:37:57.328Z,59.33
2022-07-26T03:40:25.102Z,59.94
2022-07-26T03:42:52.944Z,59.71
2022-07-26T03:45:20.995Z,59.83
2022-07-26T03:47:48.918Z,59.78
2022-07-26T03:50:16.782Z,60.05
2022-07-26T03:52:44.667Z,59.61
2022-07-26T03:55:31.065Z,59.87
2022-07-26T03:57:58.932Z,59.69
2022-07-26T04:00:27.217Z,60.14
2022-07-26T04:02:55.214Z,60.11
2022-07-26T04:05:23.722Z,59.71
2022-07-26T04:07:54.095Z,60.08
2022-07-26T04:10:23.404Z,59.90
2022-07-26T04:12:51.272Z,60.15
2022-07-26T04:15:21.267Z,59.58
2022-07-26T04:17:49.162Z,60.16
2022-07-26T04:20:17.523Z,60.00
2022-07-26T04:22:45.304Z,59.73
2022-07-26T04:25:13.297Z,60.08
2022-07-26T04:27:41.125Z,60.09
2022-07-26T04:30:14.741Z,60.17
2022-07-26T04:32:45.857Z,60.13
2022-07-26T04:35:15.652Z,59.88
2022-07-26T04:37:45.289Z,60.37
2022-07-26T04:40:21.488Z,60.75
2022-07-26T04:42:52.506Z,60.34
2022-07-26T04:45:20.919Z,60.46
2022-07-26T04:47:50.444Z,60.45
2022-07-26T04:50:20.671Z,60.39
2022-07-26T04:52:50.479Z,60.41
2022-07-26T04:55:19.170Z,60.27
2022-07-26T04:57:48.253Z,60.54
2022-07-26T05:00:23.288Z,60.73
2022-07-26T05:02:55.226Z,60.33
2022-07-26T05:05:25.758Z,60.86
2022-07-26T05:07:57.035Z,60.73
2022-07-26T05:10:37.928Z,61.37
2022-07-26T05:13:07.663Z,60.57
2022-07-26T05:15:36.955Z,60.54
2022-07-26T05:18:08.226Z,60.46
2022-07-26T05:20:38.884Z,60.82
2022-07-26T05:23:06.883Z,60.57
2022-07-26T05:25:35.427Z,60.44
2022-07-26T05:28:03.837Z,60.64
2022-07-26T05:30:32.008Z,60.56
2022-07-26T05:32:59.865Z,60.47
2022-07-26T05:35:27.727Z,60.70
2022-07-26T05:37:55.698Z,60.60
2022-07-26T05:40:23.684Z,60.58
2022-07-26T05:42:51.598Z,60.65
2022-07-26T05:45:19.423Z,60.99
2022-07-26T05:47:53.263Z,60.62
2022-07-26T05:50:21.269Z,60.76
2022-07-26T05:52:49.324Z,60.32
2022-07-26T05:55:17.158Z,60.27
2022-07-26T05:57:49.604Z,60.24
2022-07-26T06:00:18.419Z,59.66
2022-07-26T06:02:46.384Z,59.58
2022-07-26T06:05:15.875Z,59.16
2022-07-26T06:07:43.818Z,59.54
2022-07-26T06:10:13.965Z,59.38
2022-07-26T06:12:43.231Z,58.91
2022-07-26T06:15:14.947Z,57.75
2022-07-26T06:17:44.520Z,57.20
2022-07-26T06:20:13.495Z,56.68
2022-07-26T06:22:41.671Z,56.83
2022-07-26T06:25:09.817Z,56.31
2022-07-26T06:27:37.624Z,55.46
2022-07-26T06:30:07.377Z,55.15
2022-07-26T06:32:35.193Z,55.08
2022-07-26T06:35:03.328Z,54.86
2022-07-26T06:37:31.172Z,53.95
2022-07-26T06:40:06.920Z,52.69
2022-07-26T06:42:39.606Z,53.51
2022-07-26T06:45:19.876Z,51.46
2022-07-26T06:48:06.384Z,51.62
2022-07-26T06:50:54.044Z,51.81
2022-07-26T06:53:22.195Z,51.71
2022-07-26T06:55:50.026Z,50.90
2022-07-26T06:58:17.880Z,50.39
2022-07-26T07:00:45.711Z,50.56
2022-07-26T07:03:13.644Z,51.39
2022-07-26T07:05:45.355Z,50.44
2022-07-26T07:08:17.853Z,49.63
2022-07-26T07:10:46.021Z,48.06
2022-07-26T07:13:13.868Z,48.39
2022-07-26T07:15:41.632Z,48.41
2022-07-26T07:18:09.482Z,47.82
2022-07-26T07:20:38.100Z,48.07
2022-07-26T07:23:06.003Z,47.62
2022-07-26T07:25:33.944Z,47.36
2022-07-26T07:28:01.849Z,47.21
2022-07-26T07:30:29.754Z,46.27
2022-07-26T07:32:57.737Z,46.67
2022-07-26T07:35:31.885Z,46.64
2022-07-26T07:38:00.712Z,46.07
2022-07-26T07:40:30.305Z,46.18
2022-07-26T07:42:59.031Z,46.52
2022-07-26T07:45:26.908Z,47.15
2022-07-26T07:47:54.985Z,46.79
2022-07-26T07:50:22.811Z,45.80
2022-07-26T07:52:55.383Z,45.38
2022-07-26T07:55:40.986Z,45.52
2022-07-26T07:58:23.532Z,45.34
2022-07-26T08:00:58.890Z,44.51
2022-07-26T08:03:38.643Z,44.05
2022-07-26T08:08:58.055Z,42.48
2022-07-26T08:11:25.991Z,43.12
2022-07-26T08:13:57.688Z,42.66
2022-07-26T08:16:25.999Z,42.76
2022-07-26T08:18:57.934Z,42.32
2022-07-26T08:21:29.038Z,42.94
2022-07-26T08:23:57.968Z,42.96
2022-07-26T08:26:25.979Z,42.67
2022-07-26T08:28:59.873Z,42.83
2022-07-26T08:31:29.283Z,42.85
2022-07-26T08:33:57.575Z,43.44
2022-07-26T08:36:31.855Z,43.73
2022-07-26T08:39:02.140Z,43.22
2022-07-26T08:41:31.425Z,42.62
2022-07-26T08:44:10.576Z,42.26
2022-07-26T08:46:41.499Z,41.89
2022-07-26T08:49:12.278Z,42.48
2022-07-26T08:51:43.989Z,42.30
2022-07-26T08:54:15.236Z,41.02
2022-07-26T08:56:53.246Z,41.09
2022-07-26T08:59:22.885Z,41.20
2022-07-26T09:02:01.335Z,41.10
2022-07-26T09:04:43.388Z,40.72
2022-07-26T09:07:18.981Z,41.20
2022-07-26T09:09:58.139Z,40.67
2022-07-26T09:12:28.335Z,41.10
2022-07-26T09:14:57.242Z,40.87
2022-07-26T09:17:43.122Z,41.59
2022-07-26T09:20:28.090Z,41.04
2022-07-26T09:23:09.826Z,41.17
2022-07-26T09:25:46.091Z,41.15
2022-07-26T09:28:27.317Z,40.84
2022-07-26T09:31:04.185Z,41.83
2022-07-26T09:33:51.642Z,42.01
2022-07-26T09:36:19.963Z,41.95
2022-07-26T09:39:01.169Z,42.13
2022-07-26T09:41:37.932Z,42.16
2022-07-26T09:44:20.624Z,42.32
2022-07-26T09:46:58.448Z,43.08
2022-07-26T09:49:32.498Z,43.21
2022-07-26T09:52:21.407Z,43.27
2022-07-26T09:54:50.075Z,43.75
2022-07-26T09:57:20.929Z,42.86
2022-07-26T09:59:48.677Z,41.60
2022-07-26T10:02:16.455Z,42.50
2022-07-26T10:04:44.504Z,42.15
2022-07-26T10:07:12.314Z,42.60
2022-07-26T10:09:53.315Z,42.10
2022-07-26T10:12:30.090Z,41.67
2022-07-26T10:14:58.365Z,41.73
2022-07-26T10:17:31.677Z,40.60
2022-07-26T10:20:41.011Z,40.48
2022-07-26T10:24:00.342Z,40.52
2022-07-26T10:26:34.117Z,40.29
2022-07-26T10:29:17.112Z,40.91
2022-07-26T10:32:08.271Z,40.73
2022-07-26T10:34:39.605Z,40.47
2022-07-26T10:37:11.597Z,39.97
2022-07-26T10:39:39.659Z,39.72
2022-07-26T10:42:10.351Z,39.95
2022-07-26T10:44:42.120Z,39.17
2022-07-26T10:47:14.525Z,38.64
2022-07-26T10:49:58.560Z,37.82
2022-07-26T10:52:31.891Z,37.51
2022-07-26T10:54:59.529Z,38.18
2022-07-26T10:57:38.275Z,38.41
2022-07-26T11:00:14.435Z,38.84
2022-07-26T11:02:47.399Z,38.30
2022-07-26T11:05:18.524Z,38.12
2022-07-26T11:08:10.946Z,36.97
2022-07-26T11:10:41.459Z,37.06
2022-07-26T11:13:21.693Z,36.90
2022-07-26T11:16:01.071Z,36.11
2022-07-26T11:18:38.219Z,36.56
2022-07-26T11:21:12.713Z,36.50
2022-07-26T11:23:48.577Z,36.79
2022-07-26T11:26:19.888Z,36.85
2022-07-26T11:28:50.382Z,36.07
2022-07-26T11:31:20.209Z,35.94
2022-07-26T11:33:51.120Z,36.18
2022-07-26T11:36:42.280Z,35.51
2022-07-26T11:39:16.506Z,35.35
2022-07-26T11:41:44.349Z,35.77
2022-07-26T11:44:21.172Z,35.40
2022-07-26T11:46:50.560Z,34.31
2022-07-26T11:49:52.036Z,33.76
2022-07-26T11:52:25.092Z,34.61
2022-07-26T11:54:54.666Z,34.69
2022-07-26T11:57:28.407Z,34.76
2022-07-26T11:59:56.277Z,34.49
2022-07-26T12:02:24.548Z,34.78
2022-07-26T12:05:23.134Z,34.83
2022-07-26T12:08:03.048Z,34.53
2022-07-26T12:10:31.415Z,35.22
2022-07-26T12:13:19.041Z,35.04
2022-07-26T12:15:52.461Z,34.84
2022-07-26T12:18:29.458Z,34.42
2022-07-26T12:21:03.650Z,34.51
2022-07-26T12:23:48.842Z,34.10
2022-07-26T12:26:30.665Z,33.25
2022-07-26T12:29:19.007Z,33.84
2022-07-26T12:32:00.082Z,32.73
2022-07-26T12:34:27.891Z,32.69
2022-07-26T12:36:55.730Z,31.43
2022-07-26T12:39:23.800Z,31.54
2022-07-26T12:41:52.873Z,31.86
2022-07-26T12:44:23.193Z,31.71
2022-07-26T12:46:51.185Z,31.94
2022-07-26T12:49:19.031Z,31.33
2022-07-26T12:51:46.847Z,31.51
2022-07-26T12:54:14.977Z,32.17
2022-07-26T12:56:43.146Z,31.50
2022-07-26T12:59:17.638Z,31.75
2022-07-26T13:01:45.936Z,31.20
2022-07-26T13:04:14.276Z,30.79
2022-07-26T13:06:42.366Z,30.34
2022-07-26T13:09:10.118Z,30.66
2022-07-26T13:11:37.927Z,30.12
2022-07-26T13:14:05.734Z,30.45
2022-07-26T13:16:33.548Z,30.50
2022-07-26T13:19:01.357Z,29.50
2022-07-26T13:21:33.263Z,30.02
2022-07-26T13:24:01.813Z,30.25
2022-07-26T13:26:30.002Z,30.51
2022-07-26T13:28:59.742Z,30.55
2022-07-26T13:31:28.098Z,30.81
2022-07-26T13:33:55.923Z,31.03
2022-07-26T13:36:23.699Z,31.27
2022-07-26T13:38:51.518Z,31.19
2022-07-26T13:41:19.322Z,31.70
2022-07-26T13:43:47.105Z,31.42
2022-07-26T13:46:14.950Z,31.35
2022-07-26T13:48:59.883Z,31.23
2022-07-26T13:51:53.769Z,30.63
2022-07-26T13:54:24.133Z,30.73
2022-07-26T13:56:52.452Z,30.14
2022-07-26T13:59:20.635Z,28.76
2022-07-26T14:01:48.589Z,28.34
2022-07-26T14:04:17.131Z,28.82
2022-07-26T14:06:45.149Z,29.08
2022-07-26T14:09:14.057Z,29.41
2022-07-26T14:11:42.357Z,28.63
2022-07-26T14:14:11.149Z,28.17
2022-07-26T14:16:39.794Z,27.50
2022-07-26T14:19:07.836Z,28.02
2022-07-26T14:21:47.048Z,27.46
2022-07-26T14:24:25.323Z,27.32
2022-07-26T14:26:56.811Z,27.52
2022-07-26T14:29:27.452Z,27.17
2022-07-26T14:31:55.315Z,25.75
2022-07-26T14:34:23.148Z,25.98
2022-07-26T14:36:51.010Z,26.36
2022-07-26T14:39:18.789Z,26.44
2022-07-26T14:41:47.443Z,25.71
2022-07-26T14:44:15.256Z,25.65
2022-07-26T14:46:43.952Z,25.15
2022-07-26T14:49:11.978Z,25.73
2022-07-26T14:51:39.940Z,26.12
2022-07-26T14:54:08.231Z,25.17
2022-07-26T14:56:37.663Z,25.66
2022-07-26T14:59:05.455Z,25.99
2022-07-26T15:01:33.448Z,26.08
2022-07-26T15:04:01.277Z,25.17
2022-07-26T15:06:29.022Z,25.65
2022-07-26T15:08:56.819Z,25.16
2022-07-26T15:13:38.708Z,25.58
2022-07-26T15:16:06.804Z,25.37
2022-07-26T15:18:34.668Z,25.21
2022-07-26T15:21:03.013Z,25.26
2022-07-26T15:23:31.797Z,25.38
2022-07-26T15:25:59.573Z,25.00
2022-07-26T15:28:27.466Z,24.59
2022-07-26T15:30:55.784Z,25.19
2022-07-26T15:33:24.337Z,25.00
2022-07-26T15:35:55.713Z,25.11
2022-07-26T15:38:25.441Z,25.15
2022-07-26T15:40:53.499Z,25.21
2022-07-26T15:43:48.069Z,25.48
2022-07-26T15:46:12.018Z,25.00
2022-07-26T15:48:42.126Z,25.09
2022-07-26T15:51:10.594Z,25.59
2022-07-26T15:53:44.426Z,25.16
2022-07-26T15:56:14.409Z,24.95
2022-07-26T15:58:42.184Z,25.29
2022-07-26T16:01:16.362Z,25.72
2022-07-26T16:03:50.692Z,25.96
2022-07-26T16:06:27.564Z,26.16
2022-07-26T16:09:16.052Z,26.15
2022-07-26T16:11:46.492Z,25.84
2022-07-26T16:14:14.885Z,25.63
2022-07-26T16:16:43.076Z,25.38
2022-07-26T16:19:14.095Z,25.47
2022-07-26T16:21:44.036Z,25.54
2022-07-26T16:24:12.150Z,25.55
2022-07-26T16:26:40.966Z,25.94
2022-07-26T16:29:09.631Z,25.73
2022-07-26T16:31:38.331Z,26.35
2022-07-26T16:34:06.422Z,26.51
2022-07-26T16:36:34.485Z,26.61
2022-07-26T16:39:02.269Z,26.54
2022-07-26T16:41:30.741Z,26.31
2022-07-26T16:43:58.579Z,26.97
2022-07-26T16:46:26.769Z,26.42
2022-07-26T16:48:54.828Z,26.50
2022-07-26T16:51:22.792Z,27.16
2022-07-26T16:53:51.686Z,27.37
2022-07-26T16:56:19.775Z,28.06
2022-07-26T16:58:47.633Z,27.88
2022-07-26T17:01:16.044Z,27.82
2022-07-26T17:03:44.058Z,27.48
2022-07-26T17:06:11.869Z,27.84
2022-07-26T17:08:41.037Z,27.29
2022-07-26T17:11:09.047Z,27.70
2022-07-26T17:13:36.907Z,27.51
2022-07-26T17:16:05.159Z,27.97
2022-07-26T17:18:33.031Z,27.99
2022-07-26T17:21:01.574Z,27.71
2022-07-26T17:23:29.408Z,27.59
2022-07-26T17:25:57.166Z,27.68
2022-07-26T17:28:24.948Z,27.48
2022-07-26T17:30:52.775Z,27.91
2022-07-26T17:33:20.601Z,27.78
2022-07-26T17:35:48.685Z,27.68
2022-07-26T17:38:16.460Z,27.40
2022-07-26T17:40:44.809Z,27.58
2022-07-26T17:43:15.075Z,27.62
2022-07-26T17:45:43.467Z,27.45
2022-07-26T17:48:11.358Z,27.44
2022-07-26T17:50:39.175Z,27.71
2022-07-26T17:53:06.975Z,27.71
2022-07-26T17:55:34.811Z,27.94
2022-07-26T17:58:02.587Z,28.08
2022-07-26T18:00:30.443Z,28.61
2022-07-26T18:02:58.312Z,28.69
2022-07-26T18:05:34.004Z,28.42
2022-07-26T18:08:02.952Z,28.82
2022-07-26T18:10:30.790Z,28.48
2022-07-26T18:12:58.713Z,28.56
2022-07-26T18:15:26.479Z,28.65
2022-07-26T18:17:54.577Z,28.91
2022-07-26T18:20:24.195Z,29.49
2022-07-26T18:22:53.817Z,29.37
2022-07-26T18:25:21.680Z,29.75
2022-07-26T18:27:49.891Z,29.69
2022-07-26T18:30:17.683Z,30.02
2022-07-26T18:32:45.452Z,29.60
2022-07-26T18:35:13.460Z,30.21
2022-07-26T18:37:41.286Z,30.38
2022-07-26T18:40:09.675Z,30.50
2022-07-26T18:42:37.945Z,30.79
2022-07-26T18:45:06.842Z,31.02
2022-07-26T18:47:34.721Z,31.26
2022-07-26T18:50:02.931Z,31.08
2022-07-26T18:52:32.564Z,31.48
2022-07-26T18:55:02.951Z,31.56
2022-07-26T18:57:30.878Z,32.02
2022-07-26T18:59:58.771Z,32.20
2022-07-26T19:02:27.030Z,32.08
2022-07-26T19:04:54.834Z,32.24
2022-07-26T19:07:22.739Z,32.48
2022-07-26T19:09:53.742Z,32.52
2022-07-26T19:12:24.485Z,32.61
2022-07-26T19:14:52.329Z,32.86
2022-07-26T19:17:21.495Z,33.02
2022-07-26T19:19:49.293Z,32.89
2022-07-26T19:22:17.229Z,33.22
2022-07-26T19:24:45.287Z,33.16
2022-07-26T19:27:15.085Z,33.68
2022-07-26T19:29:43.844Z,33.26
2022-07-26T19:32:11.728Z,33.39
2022-07-26T19:34:39.578Z,33.44
2022-07-26T19:37:07.453Z,33.13
2022-07-26T19:39:35.243Z,33.30
2022-07-26T19:42:03.098Z,33.48
2022-07-26T19:44:30.938Z,33.22
2022-07-26T19:46:58.754Z,33.78
2022-07-26T19:49:26.822Z,33.75
2022-07-26T19:51:54.643Z,33.89
2022-07-26T19:54:22.942Z,33.65
2022-07-26T19:56:51.120Z,34.09
2022-07-26T19:59:23.381Z,34.29
2022-07-26T20:01:56.579Z,34.41
2022-07-26T20:04:26.240Z,34.29
2022-07-26T20:06:55.259Z,34.29
2022-07-26T20:09:23.097Z,34.37
2022-07-26T20:11:51.167Z,34.51
2022-07-26T20:14:20.622Z,34.41
2022-07-26T20:16:54.353Z,34.64
2022-07-26T20:19:24.999Z,34.61
2022-07-26T20:21:52.838Z,34.64
2022-07-26T20:24:21.026Z,34.54
2022-07-26T20:26:48.900Z,34.90
2022-07-26T20:29:17.240Z,34.85
2022-07-26T20:31:45.217Z,35.29
2022-07-26T20:34:13.362Z,34.89
2022-07-26T20:36:41.129Z,34.98
2022-07-26T20:39:09.443Z,35.26
2022-07-26T20:41:37.496Z,35.37
2022-07-26T20:44:06.979Z,35.33
2022-07-26T20:46:39.911Z,35.60
2022-07-26T20:49:09.273Z,35.50
2022-07-26T20:51:38.115Z,35.67
2022-07-26T20:54:06.664Z,35.90
2022-07-26T20:56:34.586Z,35.72
2022-07-26T20:59:02.461Z,35.80
2022-07-26T21:01:31.898Z,35.68
2022-07-26T21:03:59.863Z,35.92
2022-07-26T21:06:29.198Z,36.00
2022-07-26T21:08:57.942Z,35.71
2022-07-26T21:11:26.094Z,35.83
2022-07-26T21:13:54.236Z,35.83
2022-07-26T21:16:22.108Z,36.20
2022-07-26T21:18:52.594Z,36.14
2022-07-26T21:21:22.139Z,36.16
2022-07-26T21:23:50.039Z,36.39
2022-07-26T21:26:17.875Z,36.47
2022-07-26T21:28:45.815Z,36.38
2022-07-26T21:31:13.594Z,36.47
2022-07-26T21:33:41.389Z,36.45
2022-07-26T21:36:09.137Z,36.45
2022-07-26T21:38:36.946Z,36.61
2022-07-26T21:41:04.820Z,36.94
2022-07-26T21:43:32.746Z,36.53
2022-07-26T21:46:00.931Z,36.58
2022-07-26T21:48:29.958Z,36.90
2022-07-26T21:50:57.781Z,36.83
2022-07-26T21:53:25.581Z,36.88
2022-07-26T21:55:53.398Z,37.04
2022-07-26T21:58:21.202Z,37.24
2022-07-26T22:00:49.548Z,37.21
2022-07-26T22:03:18.078Z,37.29
2022-07-26T22:05:46.889Z,37.51
2022-07-26T22:08:17.686Z,37.54
2022-07-26T22:10:45.869Z,37.85
2022-07-26T22:13:15.005Z,37.58
2022-07-26T22:15:43.359Z,37.66
2022-07-26T22:18:11.374Z,37.81
2022-07-26T22:20:39.606Z,38.13
2022-07-26T22:23:10.391Z,38.28
2022-07-26T22:25:39.453Z,38.38
2022-07-26T22:28:09.837Z,38.53
2022-07-26T22:30:38.774Z,38.69
2022-07-26T22:33:08.325Z,38.84
2022-07-26T22:35:36.754Z,38.56
2022-07-26T22:38:11.002Z,39.05
2022-07-26T22:40:40.532Z,39.07
2022-07-26T22:43:09.584Z,39.14
2022-07-26T22:45:38.296Z,39.00
2022-07-26T22:48:08.103Z,39.28
2022-07-26T22:50:36.159Z,39.23
2022-07-26T22:53:04.502Z,39.84
2022-07-26T22:55:32.895Z,40.13
2022-07-26T22:58:01.364Z,40.03
2022-07-26T23:00:29.445Z,39.90
2022-07-26T23:02:57.249Z,39.93
2022-07-26T23:05:26.101Z,40.39
2022-07-26T23:08:29.430Z,40.36
2022-07-26T23:10:55.502Z,40.84
2022-07-26T23:13:23.288Z,41.20
2022-07-26T23:15:53.658Z,41.18
2022-07-26T23:18:24.734Z,41.23
2022-07-26T23:20:52.489Z,40.89
2022-07-26T23:23:20.326Z,41.23
2022-07-26T23:25:48.085Z,41.13
2022-07-26T23:28:36.043Z,41.34
2022-07-26T23:31:11.512Z,41.31
2022-07-26T23:33:51.301Z,41.94
2022-07-26T23:36:27.098Z,41.68
2022-07-26T23:38:59.197Z,41.78
2022-07-26T23:41:28.386Z,42.12
2022-07-26T23:43:56.416Z,42.51
2022-07-26T23:46:25.039Z,42.24
2022-07-26T23:48:53.400Z,42.47
2022-07-26T23:51:23.055Z,43.00
2022-07-26T23:53:51.964Z,42.27
2022-07-26T23:56:19.900Z,42.48
2022-07-26T23:58:48.045Z,42.77
